createdAt,value
2022-07-26T00:00:36.376Z,17.86
2022-07-26T00:05:39.315Z,17.85
2022-07-26T00:10:46.636Z,17.86
2022-07-26T00:15:50.364Z,17.81
2022-07-26T00:20:53.658Z,17.81
2022-07-26T00:25:58.308Z,17.70
2022-07-26T00:31:01.119Z,17.75
2022-07-26T00:36:04.272Z,17.79
2022-07-26T00:41:08.001Z,17.83
2022-07-26T00:46:10.714Z,17.72
2022-07-26T00:51:13.561Z,17.75
2022-07-26T00:56:16.778Z,17.65
2022-07-26T01:01:19.617Z,17.58
2022-07-26T01:06:27.284Z,17.57
2022-07-26T01:11:30.211Z,17.49
2022-07-26T01:16:32.990Z,17.52
2022-07-26T01:21:35.991Z,17.48
2022-07-26T01:26:38.881Z,17.49
2022-07-26T01:31:41.670Z,17.43
2022-07-26T01:36:44.524Z,17.53
2022-07-26T01:41:47.163Z,17.56
2022-07-26T01:46:50.292Z,17.96
2022-07-26T01:51:52.977Z,18.80
2022-07-26T01:56:55.621Z,19.04
2022-07-26T02:01:58.439Z,18.82
2022-07-26T02:07:03.245Z,19.37
2022-07-26T02:12:08.659Z,21.43
2022-07-26T02:17:12.317Z,22.83
2022-07-26T02:22:15.261Z,24.10
2022-07-26T02:27:18.261Z,25.61
2022-07-26T02:32:20.932Z,26.49
2022-07-26T02:37:23.615Z,27.26
2022-07-26T02:42:26.356Z,27.93
2022-07-26T02:47:29.086Z,28.64
2022-07-26T02:52:31.854Z,28.92
2022-07-26T02:57:45.309Z,30.10
2022-07-26T03:02:51.308Z,30.63
2022-07-26T03:07:54.169Z,30.98
2022-07-26T03:12:56.763Z,30.05
2022-07-26T03:17:59.489Z,27.34
2022-07-26T03:23:02.334Z,25.56
2022-07-26T03:28:05.282Z,25.12
2022-07-26T03:33:07.973Z,24.65
2022-07-26T03:38:10.625Z,24.43
2022-07-26T03:43:13.358Z,24.13
2022-07-26T03:48:16.124Z,23.58
2022-07-26T03:53:19.050Z,23.34
2022-07-26T03:58:21.880Z,23.05
2022-07-26T04:03:25.476Z,23.14
2022-07-26T04:08:28.416Z,22.77
2022-07-26T04:13:31.073Z,22.68
2022-07-26T04:18:33.752Z,22.65
2022-07-26T04:23:37.142Z,22.40
2022-07-26T04:28:41.115Z,22.72
2022-07-26T04:33:43.780Z,22.53
2022-07-26T04:38:46.569Z,22.40
2022-07-26T04:43:49.232Z,22.63
2022-07-26T04:48:51.976Z,22.61
2022-07-26T04:53:54.721Z,22.53
2022-07-26T04:58:57.405Z,22.74
2022-07-26T05:04:00.027Z,22.60
2022-07-26T05:09:03.111Z,22.74
2022-07-26T05:14:06.099Z,22.93
2022-07-26T05:19:09.131Z,22.98
2022-07-26T05:24:12.176Z,23.04
2022-07-26T05:29:15.265Z,23.27
2022-07-26T05:34:17.985Z,23.20
2022-07-26T05:39:20.658Z,23.07
2022-07-26T05:44:24.676Z,23.31
2022-07-26T05:49:40.485Z,23.52
2022-07-26T05:54:43.530Z,23.53
2022-07-26T05:59:46.219Z,23.65
2022-07-26T06:04:48.979Z,23.75
2022-07-26T06:09:51.774Z,23.83
2022-07-26T06:14:54.370Z,23.82
2022-07-26T06:19:58.155Z,24.15
2022-07-26T06:25:00.859Z,24.09
2022-07-26T06:30:04.716Z,24.23
2022-07-26T06:35:07.745Z,24.46
2022-07-26T06:40:11.273Z,24.55
2022-07-26T06:45:14.384Z,24.69
2022-07-26T06:50:17.161Z,24.66
2022-07-26T06:55:28.045Z,25.12
2022-07-26T07:00:30.873Z,25.14
2022-07-26T07:05:33.573Z,25.08
2022-07-26T07:10:36.309Z,25.28
2022-07-26T07:15:39.146Z,25.62
2022-07-26T07:20:41.839Z,25.88
2022-07-26T07:25:44.750Z,26.10
2022-07-26T07:30:47.884Z,26.29
2022-07-26T07:35:52.338Z,26.45
2022-07-26T07:40:55.107Z,26.46
2022-07-26T07:45:57.845Z,26.50
2022-07-26T07:51:00.613Z,26.63
2022-07-26T07:56:03.900Z,26.96
2022-07-26T08:01:06.838Z,27.08
2022-07-26T08:06:12.840Z,26.64
2022-07-26T08:11:16.353Z,26.55
2022-07-26T08:16:19.103Z,26.53
2022-07-26T08:21:21.910Z,26.98
2022-07-26T08:26:25.326Z,26.87
2022-07-26T08:31:29.305Z,27.53
2022-07-26T08:36:33.115Z,27.45
2022-07-26T08:41:36.936Z,27.93
2022-07-26T08:46:41.960Z,28.16
2022-07-26T08:51:45.077Z,28.18
2022-07-26T08:56:52.590Z,28.23
2022-07-26T09:02:07.777Z,28.13
2022-07-26T09:07:19.113Z,27.44
2022-07-26T09:12:23.531Z,27.45
2022-07-26T09:17:38.815Z,28.27
2022-07-26T09:23:02.561Z,28.42
2022-07-26T09:28:25.820Z,28.40
2022-07-26T09:33:48.175Z,28.97
2022-07-26T09:38:58.353Z,28.39
2022-07-26T09:44:06.707Z,28.35
2022-07-26T09:49:20.422Z,28.19
2022-07-26T09:54:46.881Z,29.05
2022-07-26T09:59:49.626Z,29.84
2022-07-26T10:04:56.653Z,30.09
2022-07-26T10:10:05.038Z,29.49
2022-07-26T10:15:47.319Z,29.33
2022-07-26T10:20:51.592Z,29.56
2022-07-26T10:25:54.698Z,30.24
2022-07-26T10:31:21.590Z,30.46
2022-07-26T10:36:31.158Z,30.21
2022-07-26T10:41:48.597Z,29.83
2022-07-26T10:47:00.177Z,30.06
2022-07-26T10:52:12.661Z,30.04
2022-07-26T10:57:15.421Z,30.33
2022-07-26T11:02:19.630Z,30.49
2022-07-26T11:07:22.331Z,31.24
2022-07-26T11:12:25.876Z,31.12
2022-07-26T11:17:30.449Z,31.09
2022-07-26T11:22:34.224Z,31.19
2022-07-26T11:27:37.129Z,31.09
2022-07-26T11:32:39.882Z,31.69
2022-07-26T11:37:53.121Z,32.21
2022-07-26T11:42:55.894Z,32.24
2022-07-26T11:47:59.061Z,32.10
2022-07-26T11:53:01.833Z,31.93
2022-07-26T11:58:06.943Z,32.34
2022-07-26T12:03:09.685Z,32.37
2022-07-26T12:08:12.396Z,32.04
2022-07-26T12:13:16.374Z,31.63
2022-07-26T12:18:23.883Z,31.45
2022-07-26T12:23:26.970Z,30.73
2022-07-26T12:28:42.898Z,30.26
2022-07-26T12:33:49.473Z,29.76
2022-07-26T12:38:56.125Z,30.01
2022-07-26T12:43:59.867Z,29.65
2022-07-26T12:49:04.187Z,30.06
2022-07-26T12:54:07.446Z,30.20
2022-07-26T12:59:12.277Z,30.17
2022-07-26T13:04:20.867Z,30.57
2022-07-26T13:09:23.575Z,30.39
2022-07-26T13:14:26.398Z,29.83
2022-07-26T13:19:30.038Z,29.90
2022-07-26T13:24:34.268Z,27.65
2022-07-26T13:29:37.418Z,26.62
2022-07-26T13:34:40.165Z,26.66
2022-07-26T13:39:45.081Z,26.79
2022-07-26T13:44:47.750Z,26.74
2022-07-26T13:49:51.557Z,25.82
2022-07-26T13:54:54.178Z,25.74
2022-07-26T13:59:56.979Z,26.22
2022-07-26T14:04:59.805Z,27.13
2022-07-26T14:10:02.669Z,27.39
2022-07-26T14:15:13.751Z,27.18
2022-07-26T14:20:20.748Z,27.35
2022-07-26T14:25:25.494Z,27.38
2022-07-26T14:30:28.382Z,27.82
2022-07-26T14:35:31.124Z,27.83
2022-07-26T14:40:35.541Z,27.82
2022-07-26T14:45:38.284Z,27.42
2022-07-26T14:51:07.199Z,27.20
2022-07-26T14:56:04.627Z,27.06
2022-07-26T15:01:07.523Z,26.95
2022-07-26T15:06:10.317Z,26.77
2022-07-26T15:11:13.733Z,26.77
2022-07-26T15:16:16.465Z,26.51
2022-07-26T15:21:19.221Z,26.37
2022-07-26T15:26:21.917Z,26.02
2022-07-26T15:31:24.952Z,25.86
2022-07-26T15:36:40.302Z,25.76
2022-07-26T15:41:42.923Z,25.56
2022-07-26T15:46:48.183Z,25.52
2022-07-26T15:51:51.623Z,25.50
2022-07-26T15:56:54.366Z,25.47
2022-07-26T16:01:57.133Z,25.51
2022-07-26T16:06:59.814Z,25.66
2022-07-26T16:12:05.904Z,25.65
2022-07-26T16:17:10.434Z,25.38
2022-07-26T16:22:13.149Z,25.32
2022-07-26T16:27:15.972Z,25.16
2022-07-26T16:32:20.729Z,25.13
2022-07-26T16:37:23.477Z,25.09
2022-07-26T16:42:26.442Z,25.05
2022-07-26T16:47:29.371Z,25.06
2022-07-26T16:52:32.230Z,25.08
2022-07-26T16:57:34.944Z,24.99
2022-07-26T17:02:39.077Z,24.94
2022-07-26T17:07:41.835Z,25.04
2022-07-26T17:12:44.851Z,25.07
2022-07-26T17:17:49.963Z,25.02
2022-07-26T17:22:53.624Z,24.89
2022-07-26T17:27:56.383Z,24.72
2022-07-26T17:32:59.182Z,24.58
2022-07-26T17:38:01.992Z,24.72
2022-07-26T17:43:06.243Z,24.61
2022-07-26T17:48:09.261Z,24.43
2022-07-26T17:53:11.943Z,24.40
2022-07-26T17:58:14.697Z,24.34
2022-07-26T18:03:18.229Z,24.18
2022-07-26T18:08:23.034Z,24.13
2022-07-26T18:13:26.584Z,24.16
2022-07-26T18:18:29.268Z,24.16
2022-07-26T18:23:31.984Z,23.87
2022-07-26T18:28:34.636Z,23.90
2022-07-26T18:33:37.285Z,23.78
2022-07-26T18:38:40.181Z,23.67
2022-07-26T18:43:46.185Z,23.60
2022-07-26T18:48:48.931Z,23.52
2022-07-26T18:53:52.163Z,23.46
2022-07-26T18:58:54.942Z,23.38
2022-07-26T19:03:57.798Z,23.28
2022-07-26T19:09:00.730Z,23.05
2022-07-26T19:14:03.401Z,23.00
2022-07-26T19:19:06.313Z,22.87
2022-07-26T19:24:09.012Z,22.78
2022-07-26T19:29:11.915Z,22.54
2022-07-26T19:34:15.447Z,22.65
2022-07-26T19:39:18.305Z,22.60
2022-07-26T19:44:21.221Z,22.53
2022-07-26T19:49:24.045Z,22.34
2022-07-26T19:54:26.850Z,22.15
2022-07-26T19:59:29.538Z,22.14
2022-07-26T20:04:32.269Z,22.26
2022-07-26T20:09:35.033Z,22.18
2022-07-26T20:14:37.841Z,22.14
2022-07-26T20:19:41.147Z,22.04
2022-07-26T20:24:43.936Z,21.98
2022-07-26T20:29:46.652Z,22.01
2022-07-26T20:34:49.475Z,21.95
2022-07-26T20:39:52.114Z,21.92
2022-07-26T20:44:54.772Z,21.83
2022-07-26T20:50:02.809Z,21.80
2022-07-26T20:55:06.957Z,21.66
2022-07-26T21:00:11.536Z,21.58
2022-07-26T21:05:14.292Z,21.56
2022-07-26T21:10:17.649Z,21.45
2022-07-26T21:15:21.291Z,21.42
2022-07-26T21:20:24.173Z,21.26
2022-07-26T21:25:26.919Z,21.25
2022-07-26T21:30:31.340Z,21.21
2022-07-26T21:35:34.538Z,21.06
2022-07-26T21:40:37.264Z,20.93
2022-07-26T21:45:40.189Z,20.85
2022-07-26T21:50:42.884Z,20.84
2022-07-26T21:55:46.373Z,20.79
2022-07-26T22:00:49.160Z,20.75
2022-07-26T22:05:52.574Z,20.67
2022-07-26T22:10:56.908Z,20.67
2022-07-26T22:15:59.733Z,20.63
2022-07-26T22:21:02.861Z,20.57
2022-07-26T22:26:05.647Z,20.51
2022-07-26T22:31:08.455Z,20.38
2022-07-26T22:36:11.189Z,20.30
2022-07-26T22:41:13.968Z,20.22
2022-07-26T22:46:16.789Z,20.16
2022-07-26T22:51:19.724Z,20.06
2022-07-26T22:56:22.474Z,19.97
2022-07-26T23:01:25.270Z,19.94
2022-07-26T23:06:31.240Z,19.90
2022-07-26T23:11:34.959Z,19.98
2022-07-26T23:16:38.423Z,19.91
2022-07-26T23:21:41.280Z,19.87
2022-07-26T23:26:44.021Z,19.75
2022-07-26T23:31:46.740Z,19.73
2022-07-26T23:36:49.512Z,19.66
2022-07-26T23:41:52.272Z,19.63
2022-07-26T23:46:55.125Z,19.62
2022-07-26T23:51:57.907Z,19.59
2022-07-26T23:57:00.781Z,19.49
